createdAt,value
2022-10-21T00:00:03.432Z,936.51
2022-10-21T00:05:03.358Z,936.51
2022-10-21T00:10:03.412Z,936.62
2022-10-21T00:15:03.194Z,936.74
2022-10-21T00:20:08.050Z,936.84
2022-10-21T00:25:04.340Z,936.84
2022-10-21T00:30:03.284Z,936.82
2022-10-21T00:35:03.193Z,936.96
2022-10-21T00:40:03.388Z,936.88
2022-10-21T00:45:04.132Z,936.80
2022-10-21T00:50:03.217Z,936.68
2022-10-21T00:55:03.202Z,936.70
2022-10-21T01:00:03.368Z,936.60
2022-10-21T01:05:03.243Z,936.54
2022-10-21T01:10:03.280Z,936.51
2022-10-21T01:20:03.245Z,936.80
2022-10-21T01:25:03.125Z,936.92
2022-10-21T01:30:03.305Z,936.88
2022-10-21T01:35:03.221Z,936.82
2022-10-21T01:40:03.297Z,936.84
2022-10-21T01:45:03.781Z,936.86
2022-10-21T01:50:03.236Z,936.70
2022-10-21T01:55:03.199Z,936.82
2022-10-21T02:00:03.403Z,936.94
2022-10-21T02:05:03.118Z,937.00
2022-10-21T02:10:03.319Z,936.86
2022-10-21T02:15:03.270Z,936.84
2022-10-21T02:20:04.364Z,936.66
2022-10-21T02:25:03.077Z,936.60
2022-10-21T02:30:03.320Z,936.60
2022-10-21T02:35:03.277Z,936.66
2022-10-21T02:40:03.267Z,936.64
2022-10-21T02:45:03.210Z,936.62
2022-10-21T02:50:03.262Z,936.56
2022-10-21T02:55:03.176Z,936.51
2022-10-21T03:00:04.796Z,936.53
2022-10-21T03:05:03.222Z,936.53
2022-10-21T03:10:08.222Z,936.51
2022-10-21T03:15:03.167Z,936.45
2022-10-21T03:20:03.309Z,936.43
2022-10-21T03:25:03.124Z,936.31
2022-10-21T03:30:03.310Z,936.19
2022-10-21T03:35:03.156Z,936.19
2022-10-21T03:40:04.033Z,936.21
2022-10-21T03:45:03.558Z,936.07
2022-10-21T03:50:04.503Z,936.00
2022-10-21T03:55:03.302Z,935.88
2022-10-21T04:00:03.273Z,935.70
2022-10-21T04:05:03.162Z,935.66
2022-10-21T04:10:04.065Z,935.66
2022-10-21T04:15:03.222Z,935.68
2022-10-21T04:20:03.304Z,935.64
2022-10-21T04:25:04.000Z,935.62
2022-10-21T04:30:03.301Z,935.60
2022-10-21T04:35:03.179Z,935.60
2022-10-21T04:40:03.440Z,935.58
2022-10-21T04:45:03.155Z,935.56
2022-10-21T04:50:03.275Z,935.54
2022-10-21T04:55:03.259Z,935.54
2022-10-21T05:00:03.247Z,935.54
2022-10-21T05:05:03.334Z,935.45
2022-10-21T05:10:03.337Z,935.39
2022-10-21T05:15:03.237Z,935.39
2022-10-21T05:20:03.314Z,935.39
2022-10-21T05:25:03.107Z,935.43
2022-10-21T05:30:03.254Z,935.56
2022-10-21T05:35:03.152Z,935.70
2022-10-21T05:40:03.265Z,935.78
2022-10-21T05:45:03.161Z,935.88
2022-10-21T05:50:03.290Z,935.98
2022-10-21T05:55:03.159Z,936.15
2022-10-21T06:00:03.188Z,936.35
2022-10-21T06:05:03.146Z,936.35
2022-10-21T06:10:03.131Z,936.43
2022-10-21T06:15:03.084Z,936.49
2022-10-21T06:20:03.284Z,936.56
2022-10-21T06:25:03.152Z,936.66
2022-10-21T06:30:03.543Z,936.74
2022-10-21T06:35:03.153Z,936.76
2022-10-21T06:40:03.304Z,936.82
2022-10-21T06:45:03.190Z,936.86
2022-10-21T06:50:03.459Z,936.88
2022-10-21T06:55:03.190Z,936.98
2022-10-21T13:55:03.210Z,938.37
2022-10-21T14:00:03.446Z,938.31
2022-10-21T14:05:03.178Z,938.25
2022-10-21T14:10:03.387Z,938.23
2022-10-21T14:15:04.190Z,938.21
2022-10-21T14:20:03.275Z,938.21
2022-10-21T14:25:03.177Z,938.19
2022-10-21T14:30:03.465Z,938.19
2022-10-21T14:35:03.120Z,938.10
2022-10-21T14:40:03.351Z,938.10
2022-10-21T14:45:03.143Z,938.13
2022-10-21T14:50:03.478Z,938.04
2022-10-21T14:55:03.182Z,938.11
2022-10-21T15:00:03.379Z,938.10
2022-10-21T15:05:03.150Z,938.06
2022-10-21T15:10:03.291Z,938.00
2022-10-21T15:15:03.142Z,937.90
2022-10-21T15:20:04.281Z,937.84
2022-10-21T15:25:04.275Z,937.82
2022-10-21T15:30:03.282Z,937.82
2022-10-21T15:35:03.165Z,937.76
2022-10-21T15:40:03.375Z,937.66
2022-10-21T15:45:06.544Z,937.60
2022-10-21T15:50:03.267Z,937.53
2022-10-21T15:55:03.193Z,937.45
2022-10-21T16:00:03.335Z,937.45
2022-10-21T16:05:03.298Z,937.41
2022-10-21T16:10:03.279Z,937.47
2022-10-21T16:15:03.181Z,937.35
2022-10-21T16:20:03.362Z,937.31
2022-10-21T16:25:03.189Z,937.31
2022-10-21T16:30:03.273Z,937.25
2022-10-21T16:35:03.183Z,937.15
2022-10-21T16:40:03.191Z,937.17
2022-10-21T16:45:03.130Z,937.11
2022-10-21T16:50:03.301Z,937.11
2022-10-21T16:55:03.186Z,937.13
2022-10-21T17:00:03.286Z,937.07
2022-10-21T17:05:03.169Z,937.02
2022-10-21T17:10:03.306Z,937.02
2022-10-21T17:15:03.174Z,936.90
2022-10-21T17:20:03.301Z,936.86
2022-10-21T17:25:03.195Z,936.80
2022-10-21T17:30:03.395Z,936.74
2022-10-21T17:35:03.308Z,936.76
2022-10-21T17:40:03.349Z,936.80
2022-10-21T17:45:03.739Z,936.82
2022-10-21T17:50:03.311Z,936.86
2022-10-21T17:55:03.199Z,936.78
2022-10-21T18:00:03.263Z,936.88
2022-10-21T18:05:03.232Z,936.76
2022-10-21T18:10:03.323Z,936.68
2022-10-21T18:15:03.229Z,936.62
2022-10-21T18:20:03.411Z,936.58
2022-10-21T18:25:03.188Z,936.60
2022-10-21T18:30:03.262Z,936.60
2022-10-21T18:35:03.095Z,936.64
2022-10-21T18:40:03.280Z,936.60
2022-10-21T18:45:03.238Z,936.53
2022-10-21T18:50:03.450Z,936.53
2022-10-21T18:55:08.186Z,936.53
2022-10-21T19:00:03.309Z,936.54
2022-10-21T19:05:03.194Z,936.51
2022-10-21T19:10:03.200Z,936.49
2022-10-21T19:15:03.113Z,936.47
2022-10-21T19:20:03.249Z,936.45
2022-10-21T19:25:03.179Z,936.53
2022-10-21T19:30:03.218Z,936.53
2022-10-21T19:35:03.107Z,936.54
2022-10-21T19:40:03.421Z,936.56
2022-10-21T19:45:03.166Z,936.62
2022-10-21T19:50:03.453Z,936.62
2022-10-21T19:55:03.239Z,936.66
2022-10-21T20:00:03.399Z,936.72
2022-10-21T20:05:03.217Z,936.74
2022-10-21T20:10:03.201Z,936.84
2022-10-21T20:15:03.132Z,936.88
2022-10-21T20:20:03.233Z,936.90
2022-10-21T20:25:03.196Z,936.90
2022-10-21T20:30:03.480Z,936.98
2022-10-21T20:35:03.168Z,936.96
2022-10-21T20:40:03.211Z,937.04
2022-10-21T20:45:03.246Z,937.07
2022-10-21T20:50:03.291Z,937.09
2022-10-21T20:55:03.182Z,937.19
2022-10-21T21:00:03.461Z,937.21
2022-10-21T21:05:03.173Z,937.33
2022-10-21T21:10:03.642Z,937.37
2022-10-21T21:15:03.315Z,937.45
2022-10-21T21:20:03.424Z,937.53
2022-10-21T21:25:03.203Z,937.55
2022-10-21T21:35:05.023Z,937.60
2022-10-21T21:40:03.344Z,937.62
2022-10-21T21:45:03.132Z,937.60
2022-10-21T21:50:03.205Z,937.64
2022-10-21T21:55:03.332Z,937.68
2022-10-21T22:00:03.251Z,937.72
2022-10-21T22:05:03.165Z,937.74
2022-10-21T22:10:03.306Z,937.82
2022-10-21T22:15:03.190Z,937.84
2022-10-21T22:20:03.291Z,937.92
2022-10-21T22:25:03.195Z,937.92
2022-10-21T22:30:03.432Z,938.00
2022-10-21T22:35:03.180Z,938.06
2022-10-21T22:40:03.237Z,938.06
2022-10-21T22:45:03.153Z,938.11
2022-10-21T22:50:03.246Z,938.23
2022-10-21T22:55:03.193Z,938.31
2022-10-21T23:00:03.264Z,938.47
2022-10-21T23:05:03.210Z,938.60
2022-10-21T23:10:03.347Z,938.68
2022-10-21T23:15:03.150Z,938.76
2022-10-21T23:20:04.805Z,938.80
2022-10-21T23:25:03.880Z,938.84
2022-10-21T23:30:03.223Z,938.86
2022-10-21T23:35:03.215Z,938.96
2022-10-21T23:40:03.417Z,939.04
2022-10-21T23:45:04.269Z,939.09
2022-10-21T23:50:03.396Z,939.09
2022-10-21T23:55:03.263Z,939.17
